Time;durP1;ratioP1;P1;durP2;ratioP2;P2;SDS_P1;SDS_P2;PMS_P1;PMS_P2;Temp;Humidity;BMP_temperature;BMP_pressure;BME280_temperature;BME280_humidity;BME280_pressure;Samples;Min_cycle;Max_cycle;Signal;HPM_P1;HPM_P2
2021/08/30 00:01:39;;;;;;;31.95;18.10;;;;;;;20.38;77.95;100251.15;1760899;81;21158;-62
2021/08/30 00:04:07;;;;;;;37.23;18.82;;;;;;;20.36;77.89;100246.43;1760957;81;21077;-62
2021/08/30 00:06:36;;;;;;;32.25;17.17;;;;;;;20.35;77.92;100245.22;1760914;81;21119;-62
2021/08/30 00:09:05;;;;;;;27.32;15.28;;;;;;;20.33;77.82;100242.68;1760824;81;21151;-62
2021/08/30 00:11:34;;;;;;;34.78;15.98;;;;;;;20.29;77.80;100241.27;1757231;81;21217;-62
2021/08/30 00:14:03;;;;;;;35.65;16.85;;;;;;;20.27;77.75;100244.56;1749680;82;21048;-62
2021/08/30 00:16:32;;;;;;;29.90;14.65;;;;;;;20.21;77.81;100236.59;1749843;82;21043;-62
2021/08/30 00:19:01;;;;;;;27.70;14.78;;;;;;;20.17;77.81;100242.33;1749893;81;21585;-62
2021/08/30 00:21:29;;;;;;;26.95;14.10;;;;;;;20.10;78.02;100239.83;1749625;82;21160;-62
2021/08/30 00:23:58;;;;;;;31.90;14.38;;;;;;;20.02;78.21;100238.67;1749604;82;21217;-62
2021/08/30 00:26:27;;;;;;;25.82;14.53;;;;;;;19.98;78.34;100243.09;1749680;82;21130;-62
2021/08/30 00:28:56;;;;;;;29.52;15.15;;;;;;;19.96;78.28;100243.22;1749777;82;21097;-62
2021/08/30 00:31:26;;;;;;;31.85;16.55;;;;;;;19.96;78.21;100246.39;1749664;81;21060;-62
2021/08/30 00:33:55;;;;;;;34.38;15.48;;;;;;;19.93;78.21;100245.31;1749654;82;21475;-62
2021/08/30 00:36:25;;;;;;;29.72;14.83;;;;;;;19.85;78.38;100244.14;1749785;81;21577;-62
2021/08/30 00:38:54;;;;;;;28.95;15.28;;;;;;;19.82;78.55;100245.73;1749662;82;21535;-62
2021/08/30 00:41:24;;;;;;;30.50;15.40;;;;;;;19.82;78.65;100246.23;1749659;82;21173;-62
2021/08/30 00:43:54;;;;;;;27.60;15.28;;;;;;;19.80;78.55;100248.19;1749790;82;21178;-62
2021/08/30 00:46:23;;;;;;;30.97;15.95;;;;;;;19.80;78.50;100245.52;1749719;82;21147;-61
2021/08/30 00:48:51;;;;;;;39.73;17.35;;;;;;;19.70;78.79;100247.23;1749624;82;21092;-62
2021/08/30 00:51:21;;;;;;;37.45;16.97;;;;;;;19.67;78.90;100253.20;1749705;82;21083;-62
2021/08/30 00:53:50;;;;;;;38.90;16.97;;;;;;;19.67;78.90;100262.55;1749828;82;21685;-62
2021/08/30 00:56:20;;;;;;;49.90;19.57;;;;;;;19.67;78.90;100257.70;1749718;82;21559;-62
2021/08/30 00:58:49;;;;;;;37.33;19.85;;;;;;;19.67;78.86;100259.88;1749719;82;21546;-62
2021/08/30 01:01:17;;;;;;;33.75;18.05;;;;;;;19.65;78.97;100264.50;1749645;82;21047;-62
2021/08/30 01:03:47;;;;;;;34.92;18.42;;;;;;;19.60;79.06;100266.70;1749690;82;21064;-62
2021/08/30 01:06:30;;;;;;;37.15;17.48;;;;;;;19.59;79.05;100264.20;1749685;82;21597;-62
2021/08/30 01:09:09;;;;;;;39.90;19.25;;;;;;;19.56;78.94;100259.94;1748648;81;21076;-62
2021/08/30 01:11:41;;;;;;;86.47;53.20;;;;;;;19.55;79.08;100259.59;1751265;80;21194;-64
2021/08/30 01:14:12;;;;;;;93.55;68.95;;;;;;;19.54;78.93;100263.23;1783000;80;21186;-62
2021/08/30 01:16:44;;;;;;;56.83;36.80;;;;;;;19.54;78.77;100266.40;1783049;80;21209;-62
2021/08/30 01:19:16;;;;;;;59.95;34.95;;;;;;;19.51;78.78;100263.48;1782983;80;21126;-62
2021/08/30 01:21:47;;;;;;;75.42;44.85;;;;;;;19.48;78.73;100263.76;1782869;80;21134;-62
2021/08/30 01:24:18;;;;;;;80.00;44.65;;;;;;;19.45;78.67;100262.67;1782885;80;21080;-63
2021/08/30 01:26:50;;;;;;;35.78;21.52;;;;;;;19.41;78.72;100262.08;1832546;78;21070;-62
2021/08/30 01:29:28;;;;;;;36.25;17.85;;;;;;;19.37;78.92;100269.16;1769392;81;21108;-62
2021/08/30 01:32:09;;;;;;;27.73;17.02;;;;;;;19.29;79.11;100266.63;1832541;78;21073;-62
2021/08/30 01:34:41;;;;;;;29.75;16.17;;;;;;;19.22;79.21;100271.28;1767774;81;21097;-62
2021/08/30 01:37:10;;;;;;;29.52;17.27;;;;;;;19.16;79.33;100275.77;1832595;78;21015;-62
2021/08/30 01:39:40;;;;;;;30.45;14.15;;;;;;;19.12;79.39;100277.00;1768464;81;21067;-62
2021/08/30 01:42:09;;;;;;;33.83;16.57;;;;;;;19.07;79.46;100284.03;1832537;78;21087;-62
2021/08/30 01:44:39;;;;;;;32.93;16.85;;;;;;;19.00;79.56;100278.88;1770076;81;21618;-62
2021/08/30 01:47:08;;;;;;;36.08;17.50;;;;;;;18.96;79.54;100273.40;1832499;78;21501;-64
2021/08/30 01:49:37;;;;;;;35.55;16.95;;;;;;;18.92;79.63;100275.47;1768421;81;21510;-62
2021/08/30 01:52:06;;;;;;;29.87;16.80;;;;;;;18.86;79.95;100272.81;1832502;78;21086;-62
2021/08/30 01:54:35;;;;;;;32.10;16.65;;;;;;;18.83;80.13;100283.75;1768537;81;21109;-62
2021/08/30 01:57:05;;;;;;;27.73;15.95;;;;;;;18.83;80.06;100278.88;1832525;78;21095;-62
2021/08/30 02:02:21;;;;;;;28.25;14.60;;;;;;;18.80;79.89;100278.63;1832487;78;21110;-62
2021/08/30 02:04:50;;;;;;;33.80;16.48;;;;;;;18.81;79.57;100272.37;1768567;81;21067;-62
2021/08/30 02:07:18;;;;;;;38.65;18.00;;;;;;;18.79;79.73;100272.91;1832508;78;21054;-62
2021/08/30 02:09:47;;;;;;;45.78;19.07;;;;;;;18.78;79.73;100275.73;1768594;81;21104;-62
2021/08/30 02:12:16;;;;;;;43.02;17.75;;;;;;;18.79;79.60;100280.91;1831433;78;21046;-62
2021/08/30 02:14:45;;;;;;;39.38;16.90;;;;;;;18.79;79.54;100278.75;1785435;80;21074;-62
2021/08/30 02:17:16;;;;;;;31.52;16.07;;;;;;;18.79;79.58;100286.25;1785563;80;21062;-62
2021/08/30 02:19:50;;;;;;;27.70;15.88;;;;;;;18.76;79.83;100276.31;1785474;80;21490;-62
2021/08/30 02:22:34;;;;;;;32.35;15.30;;;;;;;18.71;80.06;100276.70;1779191;80;21541;-61
2021/08/30 02:25:03;;;;;;;;;;;;;;;18.65;80.16;100278.54;1788018;80;21545;-62
2021/08/30 02:27:47;;;;;;;46.60;21.30;;;;;;;18.61;79.95;100275.27;1785411;80;20124;-62
2021/08/30 02:30:25;;;;;;;38.13;18.90;;;;;;;18.61;79.66;100287.73;1785546;80;21042;-62
2021/08/30 02:32:56;;;;;;;39.23;17.75;;;;;;;18.62;79.69;100285.44;1785375;80;21059;-62
2021/08/30 02:35:27;;;;;;;40.83;18.98;;;;;;;18.63;79.71;100288.48;1785312;80;21054;-62
2021/08/30 02:37:57;;;;;;;28.75;14.85;;;;;;;18.62;79.82;100294.28;1785614;80;21497;-62
2021/08/30 02:40:28;;;;;;;29.23;14.23;;;;;;;18.60;80.24;100292.22;1785420;80;21078;-62
2021/08/30 02:42:59;;;;;;;30.08;14.85;;;;;;;18.57;80.40;100292.45;1785453;80;21552;-62
2021/08/30 02:45:29;;;;;;;41.42;15.45;;;;;;;18.56;80.41;100297.94;1785127;80;21141;-62
2021/08/30 02:48:00;;;;;;;38.38;17.57;;;;;;;18.57;80.16;100288.45;1785391;80;21498;-62
2021/08/30 02:50:31;;;;;;;31.65;17.02;;;;;;;18.60;79.96;100291.38;1785414;80;21113;-62
2021/08/30 02:53:02;;;;;;;32.05;17.40;;;;;;;18.59;79.90;100297.67;1785529;80;21125;-62
2021/08/30 02:55:31;;;;;;;38.95;19.30;;;;;;;18.59;80.05;100307.00;1785498;80;21047;-62
2021/08/30 02:58:01;;;;;;;42.78;24.18;;;;;;;18.59;80.09;100309.67;1785343;80;21121;-62
2021/08/30 03:00:29;;;;;;;57.50;29.55;;;;;;;18.58;80.37;100305.33;1785390;80;21538;-62
2021/08/30 03:03:00;;;;;;;46.70;25.37;;;;;;;18.55;80.42;100310.89;1785429;79;21082;-62
2021/08/30 03:05:30;;;;;;;40.80;21.65;;;;;;;18.50;80.54;100314.78;1785404;80;21167;-62
2021/08/30 03:07:59;;;;;;;29.27;15.35;;;;;;;18.54;80.32;100303.88;1785395;80;21559;-62
2021/08/30 03:10:29;;;;;;;26.50;13.10;;;;;;;18.59;80.14;100302.55;1785438;80;21552;-62
2021/08/30 03:13:01;;;;;;;31.48;14.23;;;;;;;18.62;80.10;100302.77;1785315;80;21118;-62
2021/08/30 03:15:32;;;;;;;31.77;14.03;;;;;;;18.66;80.04;100302.88;1785401;80;21079;-61
2021/08/30 03:18:04;;;;;;;26.55;14.35;;;;;;;18.69;80.10;100307.98;1785481;80;21117;-61
2021/08/30 03:20:34;;;;;;;28.65;14.20;;;;;;;18.72;80.05;100310.41;1785485;80;21058;-61
2021/08/30 03:23:03;;;;;;;28.10;13.75;;;;;;;18.74;80.03;100304.93;1785579;80;21047;-61
2021/08/30 03:25:34;;;;;;;27.80;15.83;;;;;;;18.79;80.03;100308.08;1785330;80;21239;-62
2021/08/30 03:28:06;;;;;;;31.93;17.55;;;;;;;18.90;79.88;100324.97;1785404;80;21070;-62
2021/08/30 03:30:36;;;;;;;29.90;16.80;;;;;;;19.01;79.72;100319.23;1785413;80;21078;-62
2021/08/30 03:33:05;;;;;;;28.35;16.15;;;;;;;19.11;79.53;100309.52;1785381;80;21090;-62
2021/08/30 03:35:35;;;;;;;30.30;15.10;;;;;;;19.23;79.37;100307.16;1785356;80;21529;-63
2021/08/30 03:38:04;;;;;;;31.42;15.50;;;;;;;19.37;79.11;100315.88;1785508;80;21122;-62
2021/08/30 03:40:34;;;;;;;32.85;14.83;;;;;;;19.43;78.65;100328.70;1785515;80;21062;-62
2021/08/30 03:43:04;;;;;;;30.43;13.75;;;;;;;19.51;78.42;100326.23;1785431;80;21453;-62
2021/08/30 03:45:33;;;;;;;25.97;13.50;;;;;;;19.63;78.18;100325.21;1785505;80;21498;-62
2021/08/30 03:48:03;;;;;;;30.43;15.90;;;;;;;19.69;77.97;100330.53;1785414;80;21078;-61
2021/08/30 03:50:32;;;;;;;27.25;14.25;;;;;;;19.86;77.48;100330.47;1785458;80;21564;-62
2021/08/30 03:53:03;;;;;;;25.88;13.48;;;;;;;20.04;76.89;100328.91;1785436;80;21587;-60
2021/08/30 03:55:33;;;;;;;28.92;15.98;;;;;;;20.14;76.52;100330.79;1785496;80;21046;-62
2021/08/30 03:58:04;;;;;;;50.78;26.07;;;;;;;20.38;76.29;100327.35;1785592;80;21560;-61
2021/08/30 04:00:33;;;;;;;79.58;40.67;;;;;;;20.67;75.95;100327.14;1785493;80;21132;-61
2021/08/30 04:03:04;;;;;;;61.68;33.95;;;;;;;20.93;75.54;100324.82;1785483;80;21564;-62
2021/08/30 04:05:33;;;;;;;44.10;22.55;;;;;;;21.14;74.78;100332.27;1785601;80;21137;-62
2021/08/30 04:08:02;;;;;;;54.08;26.00;;;;;;;21.30;73.72;100330.41;1785481;80;21063;-62
2021/08/30 04:10:31;;;;;;;41.70;23.10;;;;;;;21.51;73.58;100329.46;1785540;80;21568;-62
2021/08/30 04:13:01;;;;;;;26.70;15.83;;;;;;;21.78;73.38;100331.41;1785512;80;21568;-62
2021/08/30 04:15:33;;;;;;;29.37;14.40;;;;;;;22.06;72.85;100334.19;1800297;78;21087;-62
2021/08/30 04:18:02;;;;;;;25.53;12.43;;;;;;;22.29;71.88;100322.17;1806473;79;21040;-62
2021/08/30 04:20:30;;;;;;;27.80;12.70;;;;;;;22.40;71.53;100314.95;1806216;79;21173;-62
2021/08/30 04:22:59;;;;;;;28.38;13.18;;;;;;;22.67;70.89;100324.36;1806160;79;21075;-61
2021/08/30 04:25:29;;;;;;;27.13;12.45;;;;;;;22.94;70.30;100325.34;1806151;79;21063;-61
2021/08/30 04:27:58;;;;;;;27.27;13.20;;;;;;;23.24;69.75;100321.99;1806129;79;21155;-62
2021/08/30 04:30:27;;;;;;;31.82;13.50;;;;;;;23.54;69.20;100330.20;1806257;79;21142;-62
2021/08/30 04:32:56;;;;;;;32.75;13.62;;;;;;;23.83;68.43;100324.59;1806152;79;21150;-62
2021/08/30 04:35:25;;;;;;;38.20;17.12;;;;;;;24.13;68.14;100325.14;1806135;79;21127;-61
2021/08/30 04:37:54;;;;;;;52.80;21.87;;;;;;;24.49;67.50;100326.34;1806166;79;21075;-61
2021/08/30 04:40:23;;;;;;;50.30;21.65;;;;;;;24.79;66.60;100326.87;1806055;79;21060;-62
2021/08/30 04:42:51;;;;;;;36.30;18.23;;;;;;;25.08;65.94;100335.02;1806146;79;21056;-62
2021/08/30 04:45:20;;;;;;;34.90;18.50;;;;;;;25.32;65.28;100320.28;1806170;79;21083;-61
2021/08/30 04:47:50;;;;;;;38.50;18.02;;;;;;;25.57;64.28;100318.98;1806253;79;21047;-61
2021/08/30 04:50:18;;;;;;;33.23;15.10;;;;;;;25.81;63.74;100323.01;1806181;79;21498;-62
2021/08/30 04:52:47;;;;;;;28.00;14.53;;;;;;;26.07;63.02;100322.00;1806111;79;21103;-62
2021/08/30 04:55:16;;;;;;;28.25;13.43;;;;;;;26.39;61.95;100312.14;1806116;79;21115;-62
2021/08/30 04:57:45;;;;;;;24.87;12.90;;;;;;;26.66;61.31;100313.59;1806254;79;21068;-62
2021/08/30 05:00:14;;;;;;;22.30;12.45;;;;;;;26.99;60.89;100319.37;1806197;79;21060;-62
2021/08/30 05:02:43;;;;;;;23.20;11.95;;;;;;;27.21;59.84;100314.49;1806151;79;21126;-61
2021/08/30 05:05:12;;;;;;;29.15;11.95;;;;;;;27.42;58.65;100317.09;1806158;79;21071;-62
2021/08/30 05:07:41;;;;;;;19.85;10.68;;;;;;;27.55;57.66;100310.55;1806110;79;21150;-62
2021/08/30 05:10:10;;;;;;;27.40;10.82;;;;;;;27.82;56.63;100313.20;1806158;79;21039;-62
2021/08/30 05:12:39;;;;;;;25.25;11.18;;;;;;;27.95;56.14;100305.84;1806236;79;21162;-62
2021/08/30 05:15:08;;;;;;;22.87;10.23;;;;;;;28.21;55.78;100304.57;1806011;79;21068;-62
2021/08/30 05:17:37;;;;;;;23.90;9.25;;;;;;;28.40;55.21;100300.45;1806210;79;21156;-62
2021/08/30 05:20:07;;;;;;;22.25;8.50;;;;;;;28.50;54.07;100296.44;1806047;79;21083;-62
2021/08/30 05:22:36;;;;;;;22.87;8.78;;;;;;;28.68;54.03;100296.58;1806153;79;21110;-62
2021/08/30 05:25:05;;;;;;;21.23;8.50;;;;;;;28.75;52.56;100296.15;1806145;79;21119;-62
2021/08/30 05:27:34;;;;;;;23.60;9.40;;;;;;;28.65;51.75;100300.52;1806240;79;21091;-62
2021/08/30 05:30:03;;;;;;;18.73;9.03;;;;;;;28.65;52.04;100295.10;1806192;79;21161;-62
2021/08/30 05:32:32;;;;;;;23.35;8.83;;;;;;;28.75;51.63;100304.28;1806036;79;21137;-62
2021/08/30 05:35:01;;;;;;;15.75;8.30;;;;;;;28.76;51.66;100303.27;1806099;79;21154;-62
2021/08/30 05:37:30;;;;;;;17.48;7.85;;;;;;;28.77;51.43;100302.73;1806229;79;21088;-62
2021/08/30 05:39:59;;;;;;;21.85;8.73;;;;;;;28.84;51.51;100303.66;1806120;79;21141;-62
2021/08/30 05:42:28;;;;;;;14.58;8.45;;;;;;;28.94;51.35;100299.28;1806149;79;21075;-62
2021/08/30 05:44:57;;;;;;;26.52;8.70;;;;;;;29.05;51.05;100301.00;1806056;79;21134;-62
2021/08/30 05:47:26;;;;;;;14.78;7.15;;;;;;;28.99;50.43;100298.20;1806129;79;21118;-62
2021/08/30 05:49:54;;;;;;;15.35;7.55;;;;;;;29.13;51.14;100301.91;1806143;79;21083;-62
2021/08/30 05:52:25;;;;;;;18.27;8.23;;;;;;;29.29;50.68;100307.12;1806145;79;21059;-62
2021/08/30 05:54:53;;;;;;;18.80;7.65;;;;;;;29.40;49.93;100303.03;1806220;79;21095;-62
2021/08/30 05:57:22;;;;;;;14.28;7.50;;;;;;;29.53;50.10;100300.47;1806071;79;21177;-62
2021/08/30 05:59:51;;;;;;;15.78;7.60;;;;;;;29.73;49.56;100309.28;1806066;79;21149;-62
2021/08/30 06:02:20;;;;;;;19.70;7.25;;;;;;;29.76;49.14;100302.14;1806126;79;21055;-62
2021/08/30 06:04:49;;;;;;;15.55;7.00;;;;;;;29.74;48.77;100304.22;1806152;79;21087;-62
2021/08/30 06:07:17;;;;;;;16.85;7.67;;;;;;;29.85;48.60;100311.82;1806093;79;21600;-62
2021/08/30 06:09:46;;;;;;;16.80;7.40;;;;;;;29.89;48.65;100303.59;1806148;79;21170;-62
2021/08/30 06:12:15;;;;;;;15.80;7.03;;;;;;;30.07;48.25;100307.70;1806022;79;21189;-62
2021/08/30 06:14:44;;;;;;;12.78;6.40;;;;;;;29.95;47.28;100309.59;1806089;79;21173;-62
2021/08/30 06:17:12;;;;;;;21.37;7.53;;;;;;;30.03;47.37;100307.27;1806163;79;21107;-62
2021/08/30 06:19:42;;;;;;;18.60;6.75;;;;;;;30.10;47.46;100310.00;1806116;79;21107;-62
2021/08/30 06:22:11;;;;;;;15.40;6.75;;;;;;;30.21;47.42;100314.87;1806222;79;21093;-61
2021/08/30 06:24:47;;;;;;;18.07;6.87;;;;;;;30.16;46.88;100319.56;1806208;79;21067;-62
2021/08/30 06:27:13;;;;;;;14.78;8.00;;;;;;;30.27;46.77;100308.67;1805815;79;21530;-62
2021/08/30 06:29:42;;;;;;;17.73;6.95;;;;;;;30.33;46.60;100311.97;1806132;79;21059;-62
2021/08/30 06:32:11;;;;;;;18.92;7.28;;;;;;;30.29;46.41;100313.91;1806110;79;21088;-62
2021/08/30 06:34:40;;;;;;;19.70;7.70;;;;;;;30.45;46.53;100309.52;1806095;79;21087;-61
2021/08/30 06:37:09;;;;;;;16.50;8.00;;;;;;;30.47;46.28;100318.83;1806229;79;21131;-62
2021/08/30 06:39:37;;;;;;;20.48;8.18;;;;;;;30.53;46.31;100319.41;1806137;79;21483;-62
2021/08/30 06:42:06;;;;;;;21.42;8.40;;;;;;;30.82;46.62;100316.06;1806122;79;21197;-62
2021/08/30 06:44:35;;;;;;;22.50;8.40;;;;;;;31.00;45.93;100319.09;1806109;79;21560;-62
2021/08/30 06:47:04;;;;;;;18.77;7.05;;;;;;;31.28;45.94;100315.39;1806148;79;21507;-62
2021/08/30 06:49:33;;;;;;;21.77;7.75;;;;;;;31.54;44.27;100326.36;1806084;79;21067;-62
2021/08/30 06:52:02;;;;;;;14.40;7.35;;;;;;;31.60;44.12;100321.14;1806099;79;21150;-62
2021/08/30 06:54:33;;;;;;;22.80;7.42;;;;;;;31.64;43.14;100315.05;1806196;79;21068;-62
2021/08/30 06:57:02;;;;;;;16.32;6.80;;;;;;;31.75;43.07;100313.59;1806069;79;21036;-62
2021/08/30 06:59:30;;;;;;;16.50;7.20;;;;;;;31.85;43.01;100316.72;1806089;79;21498;-61
2021/08/30 07:01:59;;;;;;;18.15;7.62;;;;;;;31.89;42.71;100320.72;1806114;79;21236;-62
2021/08/30 07:04:28;;;;;;;13.58;6.85;;;;;;;32.02;43.05;100321.73;1806098;79;21277;-62
2021/08/30 07:06:57;;;;;;;16.27;7.85;;;;;;;32.24;42.50;100319.13;1806206;79;21198;-62
2021/08/30 07:09:26;;;;;;;14.75;6.75;;;;;;;32.34;42.27;100319.22;1806180;79;21118;-62
2021/08/30 07:11:54;;;;;;;20.08;7.33;;;;;;;32.46;41.65;100315.62;1806170;79;21145;-62
2021/08/30 07:14:23;;;;;;;19.73;7.15;;;;;;;32.48;41.48;100315.37;1806193;79;21063;-62
2021/08/30 07:16:52;;;;;;;20.95;7.55;;;;;;;32.79;41.67;100309.75;1797301;79;21102;-62
2021/08/30 07:19:21;;;;;;;13.90;6.72;;;;;;;33.09;41.30;100308.13;1785515;80;21551;-62
2021/08/30 07:21:49;;;;;;;19.45;7.55;;;;;;;33.18;40.70;100307.38;1785487;80;21101;-62
2021/08/30 07:24:18;;;;;;;16.32;7.03;;;;;;;33.24;40.62;100311.13;1785502;80;21051;-62
2021/08/30 07:26:47;;;;;;;16.75;6.90;;;;;;;33.35;40.41;100312.28;1785488;80;21191;-62
2021/08/30 07:29:16;;;;;;;20.02;7.70;;;;;;;33.44;40.28;100315.91;1785634;80;21179;-62
2021/08/30 07:31:45;;;;;;;16.90;7.03;;;;;;;33.49;39.75;100307.58;1785502;80;21502;-62
2021/08/30 07:34:13;;;;;;;17.45;7.22;;;;;;;33.62;39.73;100306.10;1785508;80;21177;-62
2021/08/30 07:36:42;;;;;;;14.58;6.58;;;;;;;33.88;39.77;100306.43;1785476;80;21087;-62
2021/08/30 07:39:11;;;;;;;26.35;8.33;;;;;;;34.00;39.17;100311.47;1785583;80;21062;-62
2021/08/30 07:41:40;;;;;;;17.00;7.35;;;;;;;34.20;39.46;100311.84;1785425;80;21085;-62
2021/08/30 07:44:09;;;;;;;17.00;7.72;;;;;;;34.41;39.08;100314.11;1785403;80;21184;-62
2021/08/30 07:46:37;;;;;;;14.90;6.62;;;;;;;34.42;38.61;100314.42;1785510;80;21070;-62
2021/08/30 07:49:06;;;;;;;10.58;6.30;;;;;;;34.55;38.67;100310.70;1785684;80;21062;-62
2021/08/30 07:51:35;;;;;;;20.25;7.92;;;;;;;34.50;38.20;100306.45;1785479;80;21171;-62
2021/08/30 07:54:04;;;;;;;13.85;6.47;;;;;;;34.50;38.24;100311.91;1785469;80;21062;-62
2021/08/30 07:56:33;;;;;;;19.95;7.55;;;;;;;34.49;37.92;100310.27;1785385;80;21074;-62
2021/08/30 07:59:01;;;;;;;17.80;7.33;;;;;;;34.52;38.05;100320.72;1785485;80;21059;-62
2021/08/30 08:01:30;;;;;;;17.40;7.85;;;;;;;34.75;37.98;100316.47;1785521;80;21074;-62
2021/08/30 08:03:59;;;;;;;14.10;7.65;;;;;;;34.96;37.99;100306.41;1785563;80;21027;-62
2021/08/30 08:06:28;;;;;;;16.97;7.47;;;;;;;35.03;37.19;100304.11;1785452;80;21122;-61
2021/08/30 08:08:57;;;;;;;18.23;8.48;;;;;;;35.20;36.90;100292.86;1785458;79;21034;-61
2021/08/30 08:11:26;;;;;;;16.42;6.87;;;;;;;35.20;36.90;100292.86;1785548;80;21141;-61
2021/08/30 08:13:54;;;;;;;19.10;7.83;;;;;;;35.38;37.16;100294.15;1785474;80;21074;-61
2021/08/30 08:16:23;;;;;;;16.48;8.23;;;;;;;35.48;36.62;100296.84;1785505;80;21194;-61
2021/08/30 08:18:53;;;;;;;19.02;8.80;;;;;;;35.48;36.82;100288.09;1804357;78;21614;-61
2021/08/30 08:21:23;;;;;;;14.07;7.35;;;;;;;35.48;36.82;100288.09;1806055;79;21075;-63
2021/08/30 08:23:52;;;;;;;17.12;7.65;;;;;;;35.60;36.75;100290.00;1806275;79;21118;-61
2021/08/30 08:26:20;;;;;;;16.42;8.23;;;;;;;35.60;36.40;100281.80;1806168;79;21122;-61
2021/08/30 08:28:49;;;;;;;18.80;7.45;;;;;;;35.64;36.65;100283.84;1806142;79;21145;-61
2021/08/30 08:31:18;;;;;;;16.30;9.20;;;;;;;35.69;36.24;100288.62;1806189;79;21087;-61
2021/08/30 08:33:48;;;;;;;18.15;8.05;;;;;;;35.75;36.80;100287.14;1806181;79;21110;-61
2021/08/30 08:36:17;;;;;;;19.05;8.78;;;;;;;35.97;36.60;100282.45;1806184;79;21159;-62
2021/08/30 08:38:46;;;;;;;15.70;7.92;;;;;;;35.97;36.60;100282.45;1806151;79;21201;-61
2021/08/30 08:41:15;;;;;;;14.35;7.87;;;;;;;36.23;36.11;100281.14;1806243;79;21039;-61
2021/08/30 08:43:44;;;;;;;18.52;8.70;;;;;;;36.27;35.82;100286.42;1806175;79;21131;-61
2021/08/30 08:46:13;;;;;;;16.23;8.45;;;;;;;36.13;35.85;100289.95;1806137;79;21032;-62
2021/08/30 08:48:44;;;;;;;15.38;8.15;;;;;;;36.16;36.03;100285.88;1806063;79;21054;-62
2021/08/30 08:51:13;;;;;;;17.20;9.23;;;;;;;36.42;36.29;100282.34;1806256;79;21048;-62
2021/08/30 08:53:44;;;;;;;15.48;8.10;;;;;;;36.60;36.29;100279.98;1806169;79;21043;-61
2021/08/30 08:56:17;;;;;;;15.08;8.38;;;;;;;36.85;35.87;100275.03;1806219;79;21155;-61
2021/08/30 08:58:46;;;;;;;18.17;8.88;;;;;;;36.92;35.87;100266.63;1806372;79;21085;-62
2021/08/30 09:01:15;;;;;;;14.70;8.03;;;;;;;36.96;35.63;100272.45;1806069;79;21131;-61
2021/08/30 09:03:50;;;;;;;15.95;7.85;;;;;;;37.00;35.48;100273.63;1806234;79;21032;-62
2021/08/30 09:06:30;;;;;;;18.60;8.43;;;;;;;37.02;35.40;100274.20;1806139;79;21201;-62
2021/08/30 09:09:08;;;;;;;16.05;7.97;;;;;;;37.23;35.71;100274.91;1806125;79;21153;-61
2021/08/30 09:11:52;;;;;;;22.05;9.58;;;;;;;37.38;35.13;100274.87;1806023;79;21146;-62
2021/08/30 09:14:16;;;;;;;19.42;8.68;;;;;;;37.46;35.26;100268.95;1804355;79;21040;-62
2021/08/30 09:16:45;;;;;;;15.03;7.55;;;;;;;37.40;35.51;100264.47;1806265;79;21059;-62
2021/08/30 09:19:18;;;;;;;17.25;7.67;;;;;;;37.31;35.40;100263.22;1790155;79;21536;-62
2021/08/30 09:22:08;;;;;;;18.00;8.08;;;;;;;37.12;35.49;100263.42;1850000;77;21703;-62
2021/08/30 09:24:37;;;;;;;17.55;8.30;;;;;;;37.19;35.96;100261.39;1850089;77;21038;-62
2021/08/30 09:27:11;;;;;;;20.52;9.20;;;;;;;37.36;35.40;100256.45;1849984;77;21528;-61
2021/08/30 09:29:42;;;;;;;20.80;9.00;;;;;;;37.39;35.51;100258.71;1850013;77;21532;-61
2021/08/30 09:32:19;;;;;;;16.07;8.70;;;;;;;37.40;35.13;100258.44;1850222;77;21034;-62
2021/08/30 09:34:57;;;;;;;20.48;8.90;;;;;;;37.61;35.29;100255.49;1850096;77;21725;-61
2021/08/30 09:37:23;;;;;;;20.45;8.53;;;;;;;37.69;35.13;100258.93;1850106;77;21610;-61
2021/08/30 09:39:54;;;;;;;17.10;9.23;;;;;;;37.89;34.80;100256.48;1850122;77;21112;-61
2021/08/30 09:42:25;;;;;;;17.82;9.20;;;;;;;38.01;34.49;100265.42;1849966;77;21582;-61
2021/08/30 09:44:56;;;;;;;18.95;9.43;;;;;;;37.97;34.64;100267.02;1849887;77;21038;-62
2021/08/30 09:47:24;;;;;;;19.60;10.03;;;;;;;38.14;34.63;100271.13;1847947;77;21109;-62
2021/08/30 09:49:56;;;;;;;21.52;9.30;;;;;;;38.36;34.46;100271.14;1849967;77;21108;-62
2021/08/30 09:52:25;;;;;;;23.83;10.50;;;;;;;38.37;34.55;100268.69;1850129;77;21083;-62
2021/08/30 09:54:54;;;;;;;18.75;8.68;;;;;;;38.54;34.57;100271.91;1849968;77;21030;-62
2021/08/30 09:57:25;;;;;;;18.50;8.53;;;;;;;38.66;34.57;100270.42;1850056;77;21058;-62
2021/08/30 09:59:56;;;;;;;16.77;9.05;;;;;;;38.67;34.30;100270.16;1850160;77;21062;-62
2021/08/30 10:02:29;;;;;;;14.53;9.25;;;;;;;38.54;34.20;100271.91;1850086;77;21026;-62
2021/08/30 10:04:59;;;;;;;19.07;8.75;;;;;;;38.62;34.55;100270.10;1849714;77;21077;-62
2021/08/30 10:36:19;;;;;;;21.27;9.55;;;;;;;37.78;35.15;100264.29;1958899;73;22532;-59
2021/08/30 10:38:59;;;;;;;17.73;9.15;;;;;;;37.77;35.02;100265.36;1918159;74;21051;-60
2021/08/30 10:41:43;;;;;;;21.40;9.18;;;;;;;37.91;35.32;100261.17;1918228;75;21097;-59
2021/08/30 10:44:21;;;;;;;23.57;9.45;;;;;;;38.14;36.74;100267.56;1918353;75;21020;-59
2021/08/30 10:46:54;;;;;;;19.23;9.53;;;;;;;38.20;36.35;100263.78;1918239;74;21048;-59
2021/08/30 10:49:28;;;;;;;19.00;8.40;;;;;;;37.92;36.30;100264.20;1918127;74;21090;-59
2021/08/30 10:52:10;;;;;;;16.23;7.83;;;;;;;37.63;36.21;100260.77;1918374;75;21100;-59
2021/08/30 10:54:53;;;;;;;15.50;8.23;;;;;;;37.47;36.95;100258.28;1918381;74;21071;-59
2021/08/30 10:57:39;;;;;;;19.55;8.95;;;;;;;37.31;37.16;100255.81;1918201;74;21024;-59
2021/08/30 11:00:10;;;;;;;18.30;8.35;;;;;;;37.24;37.95;100245.02;1918346;75;21028;-59
2021/08/30 11:02:42;;;;;;;16.25;8.23;;;;;;;37.16;37.68;100247.33;1918306;75;21133;-59
2021/08/30 11:05:11;;;;;;;16.55;8.10;;;;;;;37.00;37.73;100256.64;1918131;74;21133;-59
2021/08/30 11:07:40;;;;;;;18.02;8.63;;;;;;;36.87;38.02;100256.41;1918323;75;21097;-59
2021/08/30 11:10:10;;;;;;;18.12;8.18;;;;;;;36.93;38.32;100250.47;1918261;75;21181;-59
2021/08/30 11:12:43;;;;;;;19.82;8.18;;;;;;;36.87;38.21;100248.69;1918324;75;21087;-59
2021/08/30 11:15:11;;;;;;;15.83;7.83;;;;;;;36.78;38.47;100246.05;1918188;75;21024;-59
2021/08/30 11:17:40;;;;;;;10.88;6.97;;;;;;;36.55;38.57;100244.23;1918251;75;21059;-59
2021/08/30 11:20:10;;;;;;;21.57;14.07;;;;;;;36.33;39.32;100242.14;1918211;75;21087;-59
2021/08/30 11:22:38;;;;;;;13.78;9.18;;;;;;;36.16;39.75;100243.95;1918126;74;21063;-59
2021/08/30 11:25:08;;;;;;;15.63;8.53;;;;;;;35.98;39.41;100247.11;1918217;75;21040;-59
2021/08/30 11:27:36;;;;;;;13.93;8.80;;;;;;;35.86;39.55;100248.51;1918329;75;21113;-59
2021/08/30 11:30:12;;;;;;;18.55;7.58;;;;;;;35.67;40.12;100245.55;1918222;75;21109;-59
2021/08/30 11:32:40;;;;;;;16.37;8.68;;;;;;;35.48;40.40;100231.15;1918331;74;21052;-59
2021/08/30 11:35:11;;;;;;;16.02;8.55;;;;;;;35.29;40.92;100238.62;1920269;74;21606;-59
2021/08/30 11:37:40;;;;;;;13.73;8.30;;;;;;;35.29;40.92;100238.62;1925380;74;21113;-59
2021/08/30 11:40:12;;;;;;;14.40;7.97;;;;;;;35.18;41.30;100234.77;1925232;74;21083;-59
2021/08/30 11:42:42;;;;;;;18.15;7.65;;;;;;;35.09;41.42;100233.44;1925344;74;21114;-59
2021/08/30 11:45:13;;;;;;;14.25;6.72;;;;;;;35.04;41.28;100232.76;1925201;74;21089;-59
2021/08/30 11:47:42;;;;;;;13.13;6.75;;;;;;;35.04;40.71;100226.46;1924573;74;21113;-59
2021/08/30 11:50:12;;;;;;;15.20;8.45;;;;;;;35.04;40.71;100220.85;1924589;74;21128;-59
2021/08/30 11:52:42;;;;;;;12.33;6.40;;;;;;;34.96;40.74;100224.36;1924686;74;21081;-59
2021/08/30 11:55:12;;;;;;;12.45;5.97;;;;;;;34.96;40.74;100244.88;1924664;74;21097;-59
2021/08/30 11:57:47;;;;;;;10.48;6.62;;;;;;;34.85;40.15;100225.70;1924718;74;21019;-58
2021/08/30 12:00:24;;;;;;;8.45;6.55;;;;;;;34.74;40.55;100234.98;1923507;74;21118;-59